Weather at Kelovic Airstrip [CLOSED]

Public forecast

Using degrees Celsius for public forecast. Weather courtesy of forecast.io.

Closest aviation weather report (METAR) to Kelovic Airstrip

Closest report is Morava Airport, 48.5 nm (89.8 km) ENE. Retrieved 2022/07/04 15:30 UTC (0 seconds ago):

LYKV 041530Z VRB03KT 9999 FEW040 34/18 Q1014 NOSIG

Closest aviation forecast (TAF) to Kelovic Airstrip

Closest forecast is Morava Airport, 48.5 nm (89.8 km) ENE. Retrieved 2022/07/04 12:00 UTC (3 hours ago):

TAF LYKV 041100Z 0412/0512 02005KT 9999 SCT043 TX35/0414Z TN19/0503Z PROB40 TEMPO 0413/0417 VRB15G25KT 5000 TSRA SCT030CB SCT040